createdAt,value
2019-03-27T00:01:54.058Z,4.90
2019-03-27T00:06:57.783Z,4.50
2019-03-27T00:12:01.394Z,4.90
2019-03-27T00:17:04.994Z,4.90
2019-03-27T00:22:08.649Z,4.40
2019-03-27T00:27:12.644Z,4.77
2019-03-27T00:32:16.302Z,5.07
2019-03-27T00:37:20.319Z,5.20
2019-03-27T00:42:24.045Z,5.73
2019-03-27T00:47:27.634Z,5.80
2019-03-27T00:52:31.697Z,4.80
2019-03-27T00:57:35.364Z,6.47
2019-03-27T01:02:39.026Z,6.03
2019-03-27T01:07:43.059Z,5.73
2019-03-27T01:12:46.725Z,5.00
2019-03-27T01:17:50.323Z,7.20
2019-03-27T01:22:53.995Z,5.53
2019-03-27T01:27:57.590Z,5.67
2019-03-27T01:33:01.246Z,7.10
2019-03-27T01:38:04.844Z,5.87
2019-03-27T01:43:08.421Z,6.67
2019-03-27T01:48:12.033Z,6.10
2019-03-27T01:53:15.670Z,5.60
2019-03-27T01:58:19.257Z,5.90
2019-03-27T02:03:22.873Z,6.03
2019-03-27T02:08:26.899Z,5.63
2019-03-27T02:13:30.510Z,5.67
2019-03-27T02:18:34.177Z,6.07
2019-03-27T02:23:37.853Z,6.80
2019-03-27T02:28:41.448Z,6.13
2019-03-27T02:33:45.062Z,6.30
2019-03-27T02:38:48.719Z,6.40
2019-03-27T02:43:52.313Z,6.20
2019-03-27T02:48:55.918Z,6.10
2019-03-27T02:53:59.498Z,6.30
2019-03-27T02:59:03.179Z,6.60
2019-03-27T03:04:06.835Z,6.43
2019-03-27T03:09:10.497Z,7.03
2019-03-27T03:14:14.150Z,7.33
2019-03-27T03:19:18.178Z,6.63
2019-03-27T03:24:21.776Z,7.10
2019-03-27T03:29:25.366Z,7.87
2019-03-27T03:34:29.005Z,7.60
2019-03-27T03:39:32.661Z,8.40
2019-03-27T03:44:36.573Z,8.67
2019-03-27T03:49:40.261Z,8.53
2019-03-27T03:54:43.921Z,7.90
2019-03-27T03:59:49.125Z,7.63
2019-03-27T04:04:54.931Z,8.97
2019-03-27T04:09:58.595Z,8.77
2019-03-27T04:15:02.305Z,8.93
2019-03-27T04:20:07.624Z,8.80
2019-03-27T04:25:11.612Z,8.83
2019-03-27T04:30:15.724Z,8.30
2019-03-27T04:35:19.369Z,8.30
2019-03-27T04:40:23.094Z,9.20
2019-03-27T04:45:26.753Z,8.80
2019-03-27T04:50:30.407Z,8.30
2019-03-27T04:55:34.142Z,9.10
2019-03-27T05:00:37.790Z,9.87
2019-03-27T05:05:53.753Z,10.20
2019-03-27T05:10:57.700Z,9.87
2019-03-27T05:16:01.346Z,9.63
2019-03-27T05:21:05.076Z,9.40
2019-03-27T05:26:08.649Z,10.67
2019-03-27T05:31:12.246Z,10.37
2019-03-27T05:36:15.847Z,10.37
2019-03-27T05:41:19.440Z,10.93
2019-03-27T05:46:26.390Z,10.27
2019-03-27T05:51:28.361Z,11.53
2019-03-27T05:56:32.114Z,11.10
2019-03-27T06:01:35.707Z,12.37
2019-03-27T06:06:39.361Z,10.83
2019-03-27T06:11:43.087Z,11.43
2019-03-27T06:16:46.743Z,11.47
2019-03-27T06:21:50.405Z,13.77
2019-03-27T06:26:54.065Z,12.03
2019-03-27T06:31:57.740Z,12.00
2019-03-27T06:37:01.717Z,13.93
2019-03-27T06:42:05.383Z,14.00
2019-03-27T06:47:08.995Z,13.00
2019-03-27T06:52:12.573Z,12.77
2019-03-27T06:57:35.853Z,13.37
2019-03-27T07:02:39.888Z,12.97
2019-03-27T07:07:43.477Z,13.50
2019-03-27T07:12:47.470Z,13.03
2019-03-27T07:17:53.145Z,13.50
2019-03-27T07:22:57.242Z,14.47
2019-03-27T07:28:01.168Z,14.07
2019-03-27T07:33:05.343Z,14.77
2019-03-27T07:38:09.017Z,14.67
2019-03-27T07:43:12.691Z,14.80
2019-03-27T07:48:16.342Z,15.40
2019-03-27T07:53:22.337Z,15.10
2019-03-27T07:58:25.604Z,14.97
2019-03-27T08:03:29.225Z,15.07
2019-03-27T08:08:32.806Z,15.77
2019-03-27T08:13:36.540Z,15.17
2019-03-27T08:18:40.142Z,14.97
2019-03-27T08:23:43.748Z,14.93
2019-03-27T08:28:47.352Z,14.67
2019-03-27T08:33:51.329Z,13.43
2019-03-27T08:38:55.301Z,14.13
2019-03-27T08:44:00.615Z,14.37
2019-03-27T08:49:04.273Z,13.47
2019-03-27T08:54:08.266Z,13.27
2019-03-27T08:59:12.349Z,13.20
2019-03-27T09:04:16.007Z,12.53
2019-03-27T09:09:19.670Z,12.97
2019-03-27T09:14:23.690Z,13.63
2019-03-27T09:19:35.684Z,13.70
2019-03-27T09:24:33.965Z,13.00
2019-03-27T09:29:37.634Z,13.33
2019-03-27T09:34:41.290Z,12.50
2019-03-27T09:39:47.759Z,13.20
2019-03-27T09:44:51.729Z,10.47
2019-03-27T09:49:55.782Z,10.03
2019-03-27T09:54:59.442Z,6.40
2019-03-27T10:00:04.687Z,5.70
2019-03-27T10:05:08.918Z,5.93
2019-03-27T10:10:12.893Z,5.40
2019-03-27T10:15:16.558Z,5.83
2019-03-27T10:20:20.137Z,6.43
2019-03-27T10:25:24.404Z,6.00
2019-03-27T10:30:28.433Z,6.57
2019-03-27T10:35:32.038Z,6.37
2019-03-27T10:40:35.638Z,6.33
2019-03-27T10:45:39.311Z,7.57
2019-03-27T10:50:42.974Z,6.93
2019-03-27T10:55:46.716Z,6.77
2019-03-27T11:00:51.101Z,6.93
2019-03-27T11:05:54.704Z,6.90
2019-03-27T11:10:58.371Z,7.23
2019-03-27T11:16:02.111Z,8.40
2019-03-27T11:21:06.230Z,7.30
2019-03-27T11:26:09.833Z,7.63
2019-03-27T11:31:13.911Z,7.37
2019-03-27T11:36:17.589Z,8.20
2019-03-27T11:41:21.715Z,7.93
2019-03-27T11:46:25.658Z,8.17
2019-03-27T11:51:29.310Z,8.53
2019-03-27T11:56:32.937Z,8.37
2019-03-27T12:01:40.749Z,8.43
2019-03-27T12:06:41.847Z,8.10
2019-03-27T12:11:45.449Z,7.97
2019-03-27T12:16:50.120Z,7.80
2019-03-27T12:21:54.978Z,7.83
2019-03-27T12:26:58.677Z,6.37
2019-03-27T12:32:02.353Z,7.00
2019-03-27T12:37:06.012Z,6.20
2019-03-27T12:42:09.609Z,6.47
2019-03-27T12:47:14.429Z,5.20
2019-03-27T12:52:18.713Z,5.20
2019-03-27T12:57:22.525Z,5.40
2019-03-27T13:02:26.274Z,4.93
2019-03-27T13:07:29.982Z,4.60
2019-03-27T13:12:33.641Z,4.80
2019-03-27T13:17:37.252Z,5.60
2019-03-27T13:22:41.215Z,5.60
2019-03-27T13:27:47.365Z,4.80
2019-03-27T13:32:50.134Z,4.97
2019-03-27T13:37:53.733Z,5.50
2019-03-27T13:42:57.514Z,5.67
2019-03-27T13:48:01.424Z,5.60
2019-03-27T13:53:05.115Z,5.53
2019-03-27T13:58:08.782Z,6.67
2019-03-27T14:03:12.511Z,6.67
2019-03-27T14:08:16.642Z,6.50
2019-03-27T14:13:20.647Z,6.27
2019-03-27T14:18:24.386Z,6.90
2019-03-27T14:23:28.209Z,7.37
2019-03-27T14:28:31.803Z,7.00
2019-03-27T14:33:35.797Z,6.80
2019-03-27T14:38:40.487Z,6.30
2019-03-27T14:43:43.996Z,6.83
2019-03-27T14:48:47.672Z,6.87
2019-03-27T14:53:51.346Z,6.50
2019-03-27T14:58:54.973Z,6.90
2019-03-27T15:03:58.690Z,7.00
2019-03-27T15:09:02.453Z,7.27
2019-03-27T15:14:06.217Z,7.00
2019-03-27T15:19:09.887Z,6.10
2019-03-27T15:24:13.538Z,7.03
2019-03-27T15:29:17.206Z,6.50
2019-03-27T15:34:21.159Z,6.07
2019-03-27T15:39:24.937Z,5.87
2019-03-27T15:44:29.021Z,5.97
2019-03-27T15:49:33.121Z,6.13
2019-03-27T15:54:36.876Z,5.87
2019-03-27T15:59:40.629Z,5.97
2019-03-27T16:04:44.228Z,6.83
2019-03-27T16:09:47.918Z,7.43
2019-03-27T16:14:51.977Z,5.80
2019-03-27T16:19:55.983Z,6.50
2019-03-27T16:24:59.652Z,6.17
2019-03-27T16:30:04.071Z,5.63
2019-03-27T16:35:09.140Z,5.80
2019-03-27T16:40:13.767Z,6.20
2019-03-27T16:45:17.609Z,5.87
2019-03-27T16:50:21.677Z,5.83
2019-03-27T16:55:25.680Z,5.23
2019-03-27T17:00:29.400Z,5.40
2019-03-27T17:05:33.410Z,5.70
2019-03-27T17:10:37.085Z,6.00
2019-03-27T17:15:41.184Z,5.50
2019-03-27T17:20:44.923Z,6.20
2019-03-27T17:25:49.282Z,5.97
2019-03-27T17:30:53.024Z,6.27
2019-03-27T17:35:56.630Z,7.10
2019-03-27T17:41:00.289Z,6.63
2019-03-27T17:46:05.126Z,7.07
2019-03-27T17:51:09.079Z,6.27
2019-03-27T17:56:13.205Z,6.53
2019-03-27T18:01:16.885Z,6.43
2019-03-27T18:06:20.530Z,6.50
2019-03-27T18:11:24.138Z,6.97
2019-03-27T18:16:28.787Z,6.70
2019-03-27T18:21:32.398Z,7.43
2019-03-27T18:26:36.430Z,7.57
2019-03-27T18:31:40.665Z,8.00
2019-03-27T18:36:44.397Z,7.93
2019-03-27T18:41:49.652Z,6.77
2019-03-27T18:46:53.240Z,6.23
2019-03-27T18:51:56.837Z,5.70
2019-03-27T18:57:00.765Z,6.87
2019-03-27T19:02:04.894Z,7.47
2019-03-27T19:07:08.616Z,6.70
2019-03-27T19:12:12.645Z,6.53
2019-03-27T19:17:16.580Z,6.30
2019-03-27T19:22:20.239Z,6.90
2019-03-27T19:27:24.241Z,10.30
2019-03-27T19:32:28.199Z,11.00
2019-03-27T19:37:31.816Z,8.43
2019-03-27T19:42:35.748Z,8.27
2019-03-27T19:47:39.641Z,7.00
2019-03-27T19:52:43.566Z,12.13
2019-03-27T19:57:47.633Z,23.10
2019-03-27T20:02:51.734Z,16.97
2019-03-27T20:07:55.401Z,10.13
2019-03-27T20:13:01.160Z,11.03
2019-03-27T20:18:04.941Z,12.10
2019-03-27T20:23:14.748Z,10.67
2019-03-27T20:28:14.252Z,10.73
2019-03-27T20:33:17.843Z,11.80
2019-03-27T20:43:32.036Z,14.20
2019-03-27T20:48:35.638Z,10.27
2019-03-27T20:53:39.238Z,13.40
2019-03-27T20:58:42.854Z,14.37
2019-03-27T21:03:46.469Z,12.90
2019-03-27T21:08:50.809Z,11.77
2019-03-27T21:13:54.486Z,12.30
2019-03-27T21:18:58.113Z,16.73
2019-03-27T21:24:01.793Z,13.17
2019-03-27T21:29:05.516Z,15.07
2019-03-27T21:34:09.200Z,13.10
2019-03-27T21:39:13.028Z,12.77
2019-03-27T21:44:16.993Z,10.70
2019-03-27T21:49:20.711Z,13.30
2019-03-27T21:54:24.522Z,12.60
2019-03-27T21:59:28.227Z,11.67
2019-03-27T22:04:31.897Z,8.93
2019-03-27T22:09:35.726Z,10.73
2019-03-27T22:14:39.522Z,10.70
2019-03-27T22:19:43.168Z,8.17
2019-03-27T22:24:47.226Z,8.93
2019-03-27T22:29:51.136Z,11.10
2019-03-27T22:34:55.263Z,9.57
2019-03-27T22:39:58.881Z,9.53
2019-03-27T22:45:02.993Z,9.13
2019-03-27T22:50:08.782Z,9.43
2019-03-27T22:55:12.582Z,9.00
2019-03-27T23:00:16.982Z,9.97
2019-03-27T23:05:20.643Z,10.53
2019-03-27T23:10:24.585Z,9.70
2019-03-27T23:15:28.249Z,8.37
2019-03-27T23:20:31.924Z,8.47
2019-03-27T23:25:35.903Z,8.30
2019-03-27T23:30:39.824Z,7.80
2019-03-27T23:35:44.666Z,13.83
2019-03-27T23:40:48.451Z,9.17
2019-03-27T23:46:11.378Z,9.83
2019-03-27T23:51:15.104Z,10.17
2019-03-27T23:56:18.717Z,9.37
